Tug "trevor" — WCP6921 — position and weather

sailwx.info

Track history (hours):
 
Tides and Currents Weather Stations Pressure Air Temp Water Temp Dewpoint Dewpoint Depression Visibility Wind Speed Wind Dir Waves Ship Positions

Tug "trevor"

Owner: WEEKS MARINE, INC., CRANFORD, NJ. More information available from US FCC via Universal Licensing System and Coast Guard Vessel Documentation Center.

Last reported at 2017-Aug-18 00:56 UTC. Time now 2017-Aug-18 01:11 UTC.
Position N 38°49' W 075°02'.

Length 21 m; draft 3 m.

Type: Towing. MMSI: 366643140.

Date/timePositionNaut miles runAvg speedWind from/ knotsBaromVisibWave heightAir tempDewpointWater temp
2017-Aug-18 00:56N 38°49' W 075°02'10 5.3
2017-Aug-17 22:59N 38°51' W 074°49'4 6.4
2017-Aug-17 22:20N 38°55' W 074°46'2 6.6
2017-Aug-17 21:58N 38°57' W 074°45'3 6.7
2017-Aug-17 21:30N 39°00' W 074°44'3 6.8
2017-Aug-17 21:00N 39°03' W 074°42'23 3.4
2017-Aug-17 14:07N 39°22' W 074°25'2 6.9
2017-Aug-17 13:54N 39°21' W 074°24'3 8.5
2017-Aug-17 13:30N 39°19' W 074°28'1 1.6
2017-Aug-17 13:00N 39°19' W 074°29'0 0.4
2017-Aug-17 12:30N 39°19' W 074°28'0 0.0
2017-Aug-17 12:01N 39°19' W 074°28'0 0.7
2017-Aug-17 11:31N 39°19' W 074°29'0 0.8
2017-Aug-17 11:00N 39°18' W 074°28'1 1.0
2017-Aug-17 10:30N 39°18' W 074°28'1 2.4
2017-Aug-17 09:54N 39°17' W 074°29'1 3.2
2017-Aug-17 09:30N 39°16' W 074°30'1 2.7
2017-Aug-17 09:00N 39°15' W 074°32'2 3.1
2017-Aug-17 08:15N 39°13' W 074°34'1 5.5
2017-Aug-17 08:00N 39°12' W 074°35'3 6.2
2017-Aug-17 07:30N 39°10' W 074°37'3 6.3
2017-Aug-17 07:00N 39°07' W 074°39'3 6.2
2017-Aug-17 06:30N 39°05' W 074°41'3 6.1
2017-Aug-17 06:00N 39°02' W 074°43'3 6.1
2017-Aug-17 05:30N 38°59' W 074°44'3 6.0
2017-Aug-17 05:00N 38°56' W 074°46'3 6.0
2017-Aug-17 04:30N 38°53' W 074°47'3 6.1
2017-Aug-17 04:00N 38°51' W 074°49'3 5.9
2017-Aug-17 03:30N 38°49' W 074°53'3 6.3
2017-Aug-17 03:00N 38°48' W 074°57'3 6.5
2017-Aug-17 02:30N 38°49' W 075°01'4 7.8
2017-Aug-17 02:01N 38°52' W 075°04'4 7.6
2017-Aug-17 01:30N 38°55' W 075°06'4 7.7
2017-Aug-17 01:01N 38°59' W 075°08'4 7.7
2017-Aug-17 00:31N 39°02' W 075°10'4 7.2
2017-Aug-17 00:00N 39°06' W 075°11'4 7.0
2017-Aug-16 23:31N 39°09' W 075°14'3 6.4
2017-Aug-16 23:00N 39°11' W 075°17'3 5.6
2017-Aug-16 22:31N 39°14' W 075°18'3 5.1
2017-Aug-16 22:01N 39°16' W 075°20'2 4.5
2017-Aug-16 21:31N 39°17' W 075°22'2 3.9
2017-Aug-16 21:01N 39°19' W 075°24'2 4.2
2017-Aug-16 20:30N 39°20' W 075°25'2 3.9
2017-Aug-16 20:00N 39°22' W 075°27'2 4.5
2017-Aug-16 19:31N 39°23' W 075°29'2 4.8
2017-Aug-16 19:01N 39°25' W 075°31'3 5.2
2017-Aug-16 18:31N 39°27' W 075°33'3 5.4
2017-Aug-16 18:01N 39°30' W 075°33'4 7.1
2017-Aug-16 17:31N 39°34' W 075°33'4 7.5
2017-Aug-16 17:01N 39°37' W 075°35'4 7.8
2017-Aug-16 16:30N 39°40' W 075°32'4 7.5
2017-Aug-16 16:01N 39°44' W 075°30'4 7.3
2017-Aug-16 15:30N 39°47' W 075°27'4 7.4
2017-Aug-16 15:00N 39°49' W 075°24'2 3.1
2017-Aug-16 14:30N 39°49' W 075°22'0 0.1
2017-Aug-16 14:01N 39°49' W 075°22'0 0.0
2017-Aug-16 13:30N 39°49' W 075°22'0 0.0
2017-Aug-16 13:00N 39°49' W 075°22'0 0.0
2017-Aug-16 12:30N 39°49' W 075°22'0 0.0
2017-Aug-16 12:00N 39°49' W 075°22'0 0.0
2017-Aug-16 11:30N 39°49' W 075°22'0 0.0
2017-Aug-16 11:00N 39°49' W 075°22'0 0.0
2017-Aug-16 10:30N 39°49' W 075°22'0 0.0
2017-Aug-16 10:00N 39°49' W 075°22'0 0.0
2017-Aug-16 09:30N 39°49' W 075°22'0 0.0
2017-Aug-16 09:00N 39°49' W 075°22'0 0.0
2017-Aug-16 08:30N 39°49' W 075°22'0 0.0
2017-Aug-16 08:00N 39°49' W 075°22'0 0.0
2017-Aug-16 07:31N 39°49' W 075°22'0 0.0
2017-Aug-16 07:01N 39°49' W 075°22'0 0.0
2017-Aug-16 06:30N 39°49' W 075°22'0 0.0
2017-Aug-16 06:00N 39°49' W 075°22'0 0.0
2017-Aug-16 05:31N 39°49' W 075°22'0 0.0
2017-Aug-16 05:00N 39°49' W 075°22'0 0.0
2017-Aug-16 04:30N 39°49' W 075°22'0 0.0
2017-Aug-16 04:01N 39°49' W 075°22'0 0.0
2017-Aug-16 03:31N 39°49' W 075°22'0 0.0
2017-Aug-16 03:01N 39°49' W 075°22'0 0.0
2017-Aug-16 02:31N 39°49' W 075°22'0 0.0
2017-Aug-16 02:00N 39°49' W 075°22'0 0.0
2017-Aug-16 01:31N 39°49' W 075°22'0 0.0
2017-Aug-16 01:01N 39°49' W 075°22'0 0.0
2017-Aug-16 00:30N 39°49' W 075°22'0 0.0
2017-Aug-16 00:01N 39°49' W 075°22'0 0.0
2017-Aug-15 23:31N 39°49' W 075°22'0 0.0
2017-Aug-15 23:00N 39°49' W 075°22'0 0.0
2017-Aug-15 22:30N 39°49' W 075°22'0 0.0
2017-Aug-15 22:01N 39°49' W 075°22'0 0.0
2017-Aug-15 21:31N 39°49' W 075°22'0 0.0
2017-Aug-15 21:01N 39°49' W 075°22'0 0.0
2017-Aug-15 20:30N 39°49' W 075°22'0 0.0
2017-Aug-15 20:01N 39°49' W 075°22'0 0.0
2017-Aug-15 19:31N 39°49' W 075°22'0 0.0
2017-Aug-15 19:01N 39°49' W 075°22'0 0.0
2017-Aug-15 18:30N 39°49' W 075°22'0 0.0
2017-Aug-15 18:01N 39°49' W 075°22'0 0.0
2017-Aug-15 17:31N 39°49' W 075°22'0 0.0
2017-Aug-15 17:01N 39°49' W 075°22'0 0.0
2017-Aug-15 16:31N 39°49' W 075°22'0 0.6
2017-Aug-15 16:01N 39°50' W 075°22'3 6.8
2017-Aug-15 15:30N 39°48' W 075°26'3 6.5
2017-Aug-15 15:00N 39°45' W 075°28'3 6.6
2017-Aug-15 14:31N 39°42' W 075°30'3 6.3
2017-Aug-15 14:01N 39°40' W 075°32'3 6.0
2017-Aug-15 13:31N 39°37' W 075°35'3 6.6
2017-Aug-15 13:00N 39°34' W 075°33'3 6.7
2017-Aug-15 12:31N 39°31' W 075°33'3 6.4
2017-Aug-15 12:01N 39°28' W 075°33'4 7.3
2017-Aug-15 11:30N 39°25' W 075°31'4 7.6
2017-Aug-15 11:00N 39°22' W 075°28'4 8.2
2017-Aug-15 10:31N 39°19' W 075°24'4 8.1
2017-Aug-15 10:00N 39°16' W 075°21'4 8.2
2017-Aug-15 09:30N 39°13' W 075°17'4 8.4
2017-Aug-15 09:00N 39°09' W 075°14'26 7.4
2017-Aug-15 05:26N 38°50' W 074°50'5 8.6
2017-Aug-15 04:52N 38°54' W 074°46'3 8.7
2017-Aug-15 04:29N 38°57' W 074°44'4 8.7
2017-Aug-15 04:00N 39°00' W 074°41'4 8.6
2017-Aug-15 03:30N 39°04' W 074°40'11 8.4
2017-Aug-15 02:09N 39°14' W 074°32'2 8.6
2017-Aug-15 01:55N 39°16' W 074°30'3 8.5
2017-Aug-15 01:30N 39°18' W 074°27'4 8.0
2017-Aug-15 01:00N 39°21' W 074°24'2 3.3
2017-Aug-15 00:28N 39°23' W 074°25'0 0.0
2017-Aug-14 13:26N 39°23' W 074°25'0 0.0
2017-Aug-14 12:36N 39°23' W 074°25'0 0.0
2017-Aug-14 12:23N 39°23' W 074°25'0 0.0
2017-Aug-13 12:44N 39°23' W 074°25'0 0.0
2017-Aug-13 12:28N 39°23' W 074°25'3 3.3
2017-Aug-13 11:41N 39°21' W 074°24'3 1.2
2017-Aug-13 09:37N 39°23' W 074°25'12 2.2
2017-Aug-13 04:26N 39°29' W 074°12'4 8.3
2017-Aug-13 04:00N 39°32' W 074°11'4 8.2
2017-Aug-13 03:30N 39°36' W 074°08'4 8.2
2017-Aug-13 03:00N 39°40' W 074°06'4 8.2
2017-Aug-13 02:29N 39°44' W 074°04'40 8.7
2017-Aug-12 21:54N 40°23' W 073°57'4 9.1
2017-Aug-12 21:26N 40°27' W 073°57'4 8.8
2017-Aug-12 20:58N 40°29' W 074°02'10 6.5
2017-Aug-12 19:24N 40°33' W 074°14'3 8.3
2017-Aug-12 19:00N 40°36' W 074°12'1 2.8
2017-Aug-12 18:30N 40°38' W 074°12'0 0.1
2017-Aug-12 18:00N 40°38' W 074°12'0 0.0
2017-Aug-12 17:30N 40°38' W 074°12'3 6.2
2017-Aug-12 17:00N 40°39' W 074°08'4 7.4
2017-Aug-12 16:31N 40°40' W 074°04'0 0.9
2017-Aug-12 16:00N 40°40' W 074°04'0 0.1
2017-Aug-12 15:30N 40°40' W 074°04'0 0.3
2017-Aug-12 15:00N 40°40' W 074°05'0 0.2
2017-Aug-12 14:30N 40°40' W 074°04'0 0.1
2017-Aug-12 14:00N 40°40' W 074°04'0 0.4
2017-Aug-12 13:30N 40°41' W 074°05'0 0.7
2017-Aug-12 13:00N 40°40' W 074°04'0 0.1
2017-Aug-12 12:30N 40°40' W 074°04'0 0.0
2017-Aug-12 12:01N 40°40' W 074°04'0 0.3
2017-Aug-12 11:30N 40°40' W 074°04'0 0.0
2017-Aug-12 11:00N 40°40' W 074°04'0 0.1
2017-Aug-12 10:30N 40°40' W 074°04'0 0.4
2017-Aug-12 10:01N 40°41' W 074°05'0 0.1
2017-Aug-12 09:30N 40°41' W 074°05'0 0.0
2017-Aug-12 09:00N 40°41' W 074°05'0 0.0
2017-Aug-12 08:30N 40°41' W 074°05'0 0.0
2017-Aug-12 08:00N 40°41' W 074°05'0 0.0
2017-Aug-12 07:30N 40°41' W 074°05'0 0.0
2017-Aug-12 07:00N 40°41' W 074°05'0 0.0
2017-Aug-12 06:30N 40°41' W 074°05'0 0.0
2017-Aug-12 06:00N 40°41' W 074°05'0 0.0
2017-Aug-12 05:30N 40°41' W 074°05'0 0.0
2017-Aug-12 05:00N 40°41' W 074°05'0 0.0
2017-Aug-12 04:30N 40°41' W 074°05'0 0.0
2017-Aug-12 04:00N 40°41' W 074°05'0 0.0
2017-Aug-12 03:30N 40°41' W 074°05'0 0.0
2017-Aug-12 03:00N 40°41' W 074°05'0 0.0
2017-Aug-12 02:30N 40°41' W 074°05'0 0.0
2017-Aug-12 02:00N 40°41' W 074°05'0 0.0
2017-Aug-12 01:30N 40°41' W 074°05'0 0.0
2017-Aug-12 01:00N 40°41' W 074°05'0 0.3
2017-Aug-12 00:30N 40°40' W 074°04'0 0.1
2017-Aug-12 00:01N 40°40' W 074°04'0 0.1
2017-Aug-11 23:30N 40°41' W 074°04'0 0.3
2017-Aug-11 23:00N 40°40' W 074°04'0 0.3
2017-Aug-11 22:30N 40°41' W 074°04'0 0.1
2017-Aug-11 22:01N 40°40' W 074°04'0 0.2
2017-Aug-11 21:30N 40°41' W 074°04'0 0.2
2017-Aug-11 21:00N 40°40' W 074°04'0 0.2
2017-Aug-11 20:30N 40°40' W 074°04'0 0.5
2017-Aug-11 20:00N 40°41' W 074°05'0 0.0
2017-Aug-11 19:30N 40°41' W 074°05'0 0.0
2017-Aug-11 19:00N 40°41' W 074°05'0 0.0
2017-Aug-11 18:30N 40°41' W 074°05'0 0.3
2017-Aug-11 18:01N 40°40' W 074°05'0 0.2
2017-Aug-11 17:31N 40°41' W 074°05'0 0.0
2017-Aug-11 17:00N 40°41' W 074°05'0 0.0
2017-Aug-11 16:30N 40°41' W 074°05'0 0.4
2017-Aug-11 16:00N 40°40' W 074°05'0 0.2
2017-Aug-11 15:31N 40°41' W 074°05'0 0.0
2017-Aug-11 15:00N 40°41' W 074°05'0 0.0
2017-Aug-11 14:00N 40°41' W 074°05'0 0.0
2017-Aug-11 13:30N 40°41' W 074°05'0 0.0
2017-Aug-11 13:00N 40°41' W 074°05'0 0.0
2017-Aug-11 12:30N 40°41' W 074°05'0 0.0
2017-Aug-11 12:00N 40°41' W 074°05'0 0.0
2017-Aug-11 11:30N 40°41' W 074°05'0 0.0
2017-Aug-11 11:00N 40°41' W 074°05'0 0.0
2017-Aug-11 10:30N 40°41' W 074°05'0 0.0
2017-Aug-11 10:00N 40°41' W 074°05'0 0.0
2017-Aug-11 09:30N 40°41' W 074°05'0 0.0
2017-Aug-11 09:00N 40°41' W 074°05'0 0.0
2017-Aug-11 08:30N 40°41' W 074°05'0 0.0
2017-Aug-11 08:00N 40°41' W 074°05'0 0.0
2017-Aug-11 07:30N 40°41' W 074°05'0 0.0
2017-Aug-11 07:00N 40°41' W 074°05'0 0.0
2017-Aug-11 06:30N 40°41' W 074°05'0 0.0
2017-Aug-11 06:00N 40°41' W 074°05'0 0.0
2017-Aug-11 05:30N 40°41' W 074°05'0 0.0
2017-Aug-11 05:00N 40°41' W 074°05'0 0.0
2017-Aug-11 04:30N 40°41' W 074°05'0 0.0
2017-Aug-11 04:00N 40°41' W 074°05'0 0.0
2017-Aug-11 03:30N 40°41' W 074°05'0 0.0
2017-Aug-11 03:00N 40°41' W 074°05'0 0.0
2017-Aug-11 02:30N 40°41' W 074°05'0 0.0
2017-Aug-11 02:00N 40°41' W 074°05'0 0.0
2017-Aug-11 01:30N 40°41' W 074°05'0 0.0
2017-Aug-11 01:00N 40°41' W 074°05'0 0.0
2017-Aug-11 00:30N 40°41' W 074°05'0 0.0
2017-Aug-11 00:00N 40°41' W 074°05'0 0.0
2017-Aug-10 23:30N 40°41' W 074°05'0 0.5
2017-Aug-10 23:00N 40°40' W 074°04'0 0.5
2017-Aug-10 22:30N 40°41' W 074°05'0 0.1
2017-Aug-10 22:01N 40°40' W 074°05'0 0.1
2017-Aug-10 21:30N 40°40' W 074°05'0 0.2
2017-Aug-10 21:00N 40°41' W 074°05'0 0.1
2017-Aug-10 20:30N 40°41' W 074°05'0 0.0
2017-Aug-10 20:00N 40°41' W 074°05'0 0.0
2017-Aug-10 19:30N 40°41' W 074°05'0 0.0
2017-Aug-10 19:00N 40°41' W 074°05'0 0.0
2017-Aug-10 18:30N 40°41' W 074°05'1 2.9
2017-Aug-10 18:00N 40°39' W 074°05'4 8.9
2017-Aug-10 17:30N 40°39' W 074°11'1 2.6
2017-Aug-10 16:59N 40°38' W 074°12'0 0.0
2017-Aug-10 16:30N 40°38' W 074°12'0 0.0
2017-Aug-10 16:00N 40°38' W 074°12'0 0.0
2017-Aug-10 15:30N 40°38' W 074°12'0 0.0
2017-Aug-10 15:00N 40°38' W 074°12'0 0.0
2017-Aug-10 14:30N 40°38' W 074°12'0 0.0
2017-Aug-10 14:00N 40°38' W 074°12'0 0.0
2017-Aug-10 13:30N 40°38' W 074°12'0 0.0
2017-Aug-10 13:00N 40°38' W 074°12'0 0.0
2017-Aug-10 12:30N 40°38' W 074°12'0 0.3
2017-Aug-10 12:00N 40°38' W 074°12'0 0.5
2017-Aug-10 11:30N 40°38' W 074°12'0 0.7
2017-Aug-10 11:00N 40°38' W 074°12'0 0.6
2017-Aug-10 10:31N 40°38' W 074°12'4 8.1
2017-Aug-10 10:00N 40°39' W 074°07'2 4.6
2017-Aug-10 09:30N 40°41' W 074°05'0 0.0
2017-Aug-10 09:00N 40°41' W 074°05'0 0.0
2017-Aug-10 08:30N 40°41' W 074°05'0 0.0
2017-Aug-10 08:00N 40°41' W 074°05'0 0.0
2017-Aug-10 07:30N 40°41' W 074°05'0 0.0
2017-Aug-10 07:00N 40°41' W 074°05'0 0.0
2017-Aug-10 06:30N 40°41' W 074°05'0 0.0
2017-Aug-10 06:00N 40°41' W 074°05'0 0.0
2017-Aug-10 05:30N 40°41' W 074°05'0 0.0
2017-Aug-10 05:00N 40°41' W 074°05'0 0.0
2017-Aug-10 04:30N 40°41' W 074°05'0 0.0
2017-Aug-10 04:00N 40°41' W 074°05'0 0.0
2017-Aug-10 03:30N 40°41' W 074°05'0 0.0
2017-Aug-10 03:00N 40°41' W 074°05'0 0.0
2017-Aug-10 02:30N 40°41' W 074°05'0 0.0
2017-Aug-10 02:00N 40°41' W 074°05'0 0.0
2017-Aug-10 01:30N 40°41' W 074°05'0 0.0
2017-Aug-10 01:00N 40°41' W 074°05'0 0.0
2017-Aug-10 00:30N 40°41' W 074°05'0 0.0
2017-Aug-10 00:00N 40°41' W 074°05'0 0.0
2017-Aug-09 23:30N 40°41' W 074°05'0 0.0
2017-Aug-09 23:00N 40°41' W 074°05'0 0.0
2017-Aug-09 22:30N 40°41' W 074°05'0 0.0
2017-Aug-09 22:00N 40°41' W 074°05'0 0.0
2017-Aug-09 21:30N 40°41' W 074°05'0 0.0
2017-Aug-09 21:00N 40°41' W 074°05'0 0.0
2017-Aug-09 20:30N 40°41' W 074°05'0 0.0
2017-Aug-09 20:00N 40°41' W 074°05'0 0.5
2017-Aug-09 19:31N 40°40' W 074°04'1 1.8
2017-Aug-09 19:00N 40°40' W 074°03'2 4.6
2017-Aug-09 18:30N 40°42' W 074°02'3 6.0
2017-Aug-09 18:00N 40°45' W 074°01'3 5.5
2017-Aug-09 17:30N 40°47' W 073°60'2 3.8
2017-Aug-09 17:00N 40°49' W 073°58'0 0.1
2017-Aug-09 16:30N 40°49' W 073°58'5 9.2
2017-Aug-09 16:00N 40°45' W 074°01'5 9.2
2017-Aug-09 15:30N 40°41' W 074°03'1 2.7
2017-Aug-09 15:00N 40°41' W 074°04'0 0.2
2017-Aug-09 14:30N 40°41' W 074°05'0 0.0
2017-Aug-09 14:00N 40°41' W 074°05'0 0.0
2017-Aug-09 13:30N 40°41' W 074°05'0 0.0
2017-Aug-09 13:00N 40°41' W 074°05'0 0.0
2017-Aug-09 12:30N 40°41' W 074°05'0 0.0
2017-Aug-09 12:00N 40°41' W 074°05'0 0.0
2017-Aug-09 11:30N 40°41' W 074°05'0 0.0
2017-Aug-09 11:00N 40°41' W 074°05'0 0.0
2017-Aug-09 10:30N 40°41' W 074°05'0 0.0
2017-Aug-09 10:00N 40°41' W 074°05'0 0.0
2017-Aug-09 09:30N 40°41' W 074°05'0 0.0
2017-Aug-09 09:00N 40°41' W 074°05'0 0.0
2017-Aug-09 08:30N 40°41' W 074°05'0 0.0
2017-Aug-09 08:00N 40°41' W 074°05'0 0.0
2017-Aug-09 07:30N 40°41' W 074°05'0 0.0
2017-Aug-09 07:00N 40°41' W 074°05'0 0.0
2017-Aug-09 06:30N 40°41' W 074°05'0 0.0
2017-Aug-09 06:00N 40°41' W 074°05'0 0.0
2017-Aug-09 05:30N 40°41' W 074°05'0 0.0
2017-Aug-09 05:00N 40°41' W 074°05'0 0.0
2017-Aug-09 04:30N 40°41' W 074°05'0 0.0
2017-Aug-09 04:00N 40°41' W 074°05'0 0.0
2017-Aug-09 03:30N 40°41' W 074°05'0 0.0
2017-Aug-09 03:00N 40°41' W 074°05'0 0.0
2017-Aug-09 02:30N 40°41' W 074°05'0 0.0
2017-Aug-09 02:00N 40°41' W 074°05'0 0.0
2017-Aug-09 01:30N 40°41' W 074°05'0 0.0
2017-Aug-09 01:00N 40°41' W 074°05'0 0.0
2017-Aug-09 00:30N 40°41' W 074°05'0 0.0
2017-Aug-09 00:00N 40°41' W 074°05'0 0.0
2017-Aug-08 23:30N 40°41' W 074°05'0 0.0
2017-Aug-08 23:01N 40°41' W 074°05'0 0.0
2017-Aug-08 22:30N 40°41' W 074°05'0 0.0
2017-Aug-08 22:00N 40°41' W 074°05'0 0.4
2017-Aug-08 21:30N 40°41' W 074°04'0 0.2
2017-Aug-08 21:00N 40°41' W 074°04'0 0.3
2017-Aug-08 20:30N 40°41' W 074°05'0 0.0
2017-Aug-08 20:00N 40°41' W 074°05'0 0.0
2017-Aug-08 19:30N 40°41' W 074°05'0 0.0
2017-Aug-08 19:00N 40°41' W 074°05'0 0.0
2017-Aug-08 18:30N 40°41' W 074°05'0 0.0
2017-Aug-08 18:00N 40°41' W 074°05'0 0.0
2017-Aug-08 17:30N 40°41' W 074°05'0 0.0
2017-Aug-08 17:00N 40°41' W 074°05'0 0.0
2017-Aug-08 16:30N 40°41' W 074°05'0 0.0
2017-Aug-08 16:00N 40°41' W 074°05'0 0.0
2017-Aug-08 15:30N 40°41' W 074°05'0 0.0
2017-Aug-08 15:00N 40°41' W 074°05'0 0.1
2017-Aug-08 14:30N 40°41' W 074°05'0 0.0
2017-Aug-08 14:00N 40°41' W 074°05'0 0.2
2017-Aug-08 13:30N 40°40' W 074°04'2 3.6
2017-Aug-08 13:00N 40°39' W 074°06'3 5.2
2017-Aug-08 12:30N 40°39' W 074°09'2 3.7
2017-Aug-08 12:00N 40°41' W 074°08'0 0.0
2017-Aug-08 11:30N 40°41' W 074°08'0 0.2
2017-Aug-08 11:00N 40°41' W 074°08'2 4.7
2017-Aug-08 10:30N 40°39' W 074°08'3 6.6
2017-Aug-08 10:00N 40°40' W 074°04'  
Track history (hours):
 
Tides and Currents Weather Stations Pressure Air Temp Water Temp Dewpoint Dewpoint Depression Visibility Wind Speed Wind Dir Waves Ship Positions

Tug "trevor"

Owner: WEEKS MARINE, INC., CRANFORD, NJ. More information available from US FCC via Universal Licensing System and Coast Guard Vessel Documentation Center.

Last reported at 2017-Aug-18 00:56 UTC. Time now 2017-Aug-18 01:11 UTC.
Position N 38°49' W 075°02'.

Length 21 m; draft 3 m.

Type: Towing. MMSI: 366643140.

Date/timePositionNaut miles runAvg speedWind from/ knotsBaromVisibWave heightAir tempDewpointWater temp
2017-Aug-18 00:56N 38°49' W 075°02'10 5.3
2017-Aug-17 22:59N 38°51' W 074°49'4 6.4
2017-Aug-17 22:20N 38°55' W 074°46'2 6.6
2017-Aug-17 21:58N 38°57' W 074°45'3 6.7
2017-Aug-17 21:30N 39°00' W 074°44'3 6.8
2017-Aug-17 21:00N 39°03' W 074°42'23 3.4
2017-Aug-17 14:07N 39°22' W 074°25'2 6.9
2017-Aug-17 13:54N 39°21' W 074°24'3 8.5
2017-Aug-17 13:30N 39°19' W 074°28'1 1.6
2017-Aug-17 13:00N 39°19' W 074°29'0 0.4
2017-Aug-17 12:30N 39°19' W 074°28'0 0.0
2017-Aug-17 12:01N 39°19' W 074°28'0 0.7
2017-Aug-17 11:31N 39°19' W 074°29'0 0.8
2017-Aug-17 11:00N 39°18' W 074°28'1 1.0
2017-Aug-17 10:30N 39°18' W 074°28'1 2.4
2017-Aug-17 09:54N 39°17' W 074°29'1 3.2
2017-Aug-17 09:30N 39°16' W 074°30'1 2.7
2017-Aug-17 09:00N 39°15' W 074°32'2 3.1
2017-Aug-17 08:15N 39°13' W 074°34'1 5.5
2017-Aug-17 08:00N 39°12' W 074°35'3 6.2
2017-Aug-17 07:30N 39°10' W 074°37'3 6.3
2017-Aug-17 07:00N 39°07' W 074°39'3 6.2
2017-Aug-17 06:30N 39°05' W 074°41'3 6.1
2017-Aug-17 06:00N 39°02' W 074°43'3 6.1
2017-Aug-17 05:30N 38°59' W 074°44'3 6.0
2017-Aug-17 05:00N 38°56' W 074°46'3 6.0
2017-Aug-17 04:30N 38°53' W 074°47'3 6.1
2017-Aug-17 04:00N 38°51' W 074°49'3 5.9
2017-Aug-17 03:30N 38°49' W 074°53'3 6.3
2017-Aug-17 03:00N 38°48' W 074°57'3 6.5
2017-Aug-17 02:30N 38°49' W 075°01'4 7.8
2017-Aug-17 02:01N 38°52' W 075°04'4 7.6
2017-Aug-17 01:30N 38°55' W 075°06'4 7.7
2017-Aug-17 01:01N 38°59' W 075°08'4 7.7
2017-Aug-17 00:31N 39°02' W 075°10'4 7.2
2017-Aug-17 00:00N 39°06' W 075°11'4 7.0
2017-Aug-16 23:31N 39°09' W 075°14'3 6.4
2017-Aug-16 23:00N 39°11' W 075°17'3 5.6
2017-Aug-16 22:31N 39°14' W 075°18'3 5.1
2017-Aug-16 22:01N 39°16' W 075°20'2 4.5
2017-Aug-16 21:31N 39°17' W 075°22'2 3.9
2017-Aug-16 21:01N 39°19' W 075°24'2 4.2
2017-Aug-16 20:30N 39°20' W 075°25'2 3.9
2017-Aug-16 20:00N 39°22' W 075°27'2 4.5
2017-Aug-16 19:31N 39°23' W 075°29'2 4.8
2017-Aug-16 19:01N 39°25' W 075°31'3 5.2
2017-Aug-16 18:31N 39°27' W 075°33'3 5.4
2017-Aug-16 18:01N 39°30' W 075°33'4 7.1
2017-Aug-16 17:31N 39°34' W 075°33'4 7.5
2017-Aug-16 17:01N 39°37' W 075°35'4 7.8
2017-Aug-16 16:30N 39°40' W 075°32'4 7.5
2017-Aug-16 16:01N 39°44' W 075°30'4 7.3
2017-Aug-16 15:30N 39°47' W 075°27'4 7.4
2017-Aug-16 15:00N 39°49' W 075°24'2 3.1
2017-Aug-16 14:30N 39°49' W 075°22'0 0.1
2017-Aug-16 14:01N 39°49' W 075°22'0 0.0
2017-Aug-16 13:30N 39°49' W 075°22'0 0.0
2017-Aug-16 13:00N 39°49' W 075°22'0 0.0
2017-Aug-16 12:30N 39°49' W 075°22'0 0.0
2017-Aug-16 12:00N 39°49' W 075°22'0 0.0
2017-Aug-16 11:30N 39°49' W 075°22'0 0.0
2017-Aug-16 11:00N 39°49' W 075°22'0 0.0
2017-Aug-16 10:30N 39°49' W 075°22'0 0.0
2017-Aug-16 10:00N 39°49' W 075°22'0 0.0
2017-Aug-16 09:30N 39°49' W 075°22'0 0.0
2017-Aug-16 09:00N 39°49' W 075°22'0 0.0
2017-Aug-16 08:30N 39°49' W 075°22'0 0.0
2017-Aug-16 08:00N 39°49' W 075°22'0 0.0
2017-Aug-16 07:31N 39°49' W 075°22'0 0.0
2017-Aug-16 07:01N 39°49' W 075°22'0 0.0
2017-Aug-16 06:30N 39°49' W 075°22'0 0.0
2017-Aug-16 06:00N 39°49' W 075°22'0 0.0
2017-Aug-16 05:31N 39°49' W 075°22'0 0.0
2017-Aug-16 05:00N 39°49' W 075°22'0 0.0
2017-Aug-16 04:30N 39°49' W 075°22'0 0.0
2017-Aug-16 04:01N 39°49' W 075°22'0 0.0
2017-Aug-16 03:31N 39°49' W 075°22'0 0.0
2017-Aug-16 03:01N 39°49' W 075°22'0 0.0
2017-Aug-16 02:31N 39°49' W 075°22'0 0.0
2017-Aug-16 02:00N 39°49' W 075°22'0 0.0
2017-Aug-16 01:31N 39°49' W 075°22'0 0.0
2017-Aug-16 01:01N 39°49' W 075°22'0 0.0
2017-Aug-16 00:30N 39°49' W 075°22'0 0.0
2017-Aug-16 00:01N 39°49' W 075°22'0 0.0
2017-Aug-15 23:31N 39°49' W 075°22'0 0.0
2017-Aug-15 23:00N 39°49' W 075°22'0 0.0
2017-Aug-15 22:30N 39°49' W 075°22'0 0.0
2017-Aug-15 22:01N 39°49' W 075°22'0 0.0
2017-Aug-15 21:31N 39°49' W 075°22'0 0.0
2017-Aug-15 21:01N 39°49' W 075°22'0 0.0
2017-Aug-15 20:30N 39°49' W 075°22'0 0.0
2017-Aug-15 20:01N 39°49' W 075°22'0 0.0
2017-Aug-15 19:31N 39°49' W 075°22'0 0.0
2017-Aug-15 19:01N 39°49' W 075°22'0 0.0
2017-Aug-15 18:30N 39°49' W 075°22'0 0.0
2017-Aug-15 18:01N 39°49' W 075°22'0 0.0
2017-Aug-15 17:31N 39°49' W 075°22'0 0.0
2017-Aug-15 17:01N 39°49' W 075°22'0 0.0
2017-Aug-15 16:31N 39°49' W 075°22'0 0.6
2017-Aug-15 16:01N 39°50' W 075°22'3 6.8
2017-Aug-15 15:30N 39°48' W 075°26'3 6.5
2017-Aug-15 15:00N 39°45' W 075°28'3 6.6
2017-Aug-15 14:31N 39°42' W 075°30'3 6.3
2017-Aug-15 14:01N 39°40' W 075°32'3 6.0
2017-Aug-15 13:31N 39°37' W 075°35'3 6.6
2017-Aug-15 13:00N 39°34' W 075°33'3 6.7
2017-Aug-15 12:31N 39°31' W 075°33'3 6.4
2017-Aug-15 12:01N 39°28' W 075°33'4 7.3
2017-Aug-15 11:30N 39°25' W 075°31'4 7.6
2017-Aug-15 11:00N 39°22' W 075°28'4 8.2
2017-Aug-15 10:31N 39°19' W 075°24'4 8.1
2017-Aug-15 10:00N 39°16' W 075°21'4 8.2
2017-Aug-15 09:30N 39°13' W 075°17'4 8.4
2017-Aug-15 09:00N 39°09' W 075°14'26 7.4
2017-Aug-15 05:26N 38°50' W 074°50'5 8.6
2017-Aug-15 04:52N 38°54' W 074°46'3 8.7
2017-Aug-15 04:29N 38°57' W 074°44'4 8.7
2017-Aug-15 04:00N 39°00' W 074°41'4 8.6
2017-Aug-15 03:30N 39°04' W 074°40'11 8.4
2017-Aug-15 02:09N 39°14' W 074°32'2 8.6
2017-Aug-15 01:55N 39°16' W 074°30'3 8.5
2017-Aug-15 01:30N 39°18' W 074°27'4 8.0
2017-Aug-15 01:00N 39°21' W 074°24'2 3.3
2017-Aug-15 00:28N 39°23' W 074°25'0 0.0
2017-Aug-14 13:26N 39°23' W 074°25'0 0.0
2017-Aug-14 12:36N 39°23' W 074°25'0 0.0
2017-Aug-14 12:23N 39°23' W 074°25'0 0.0
2017-Aug-13 12:44N 39°23' W 074°25'0 0.0
2017-Aug-13 12:28N 39°23' W 074°25'3 3.3
2017-Aug-13 11:41N 39°21' W 074°24'3 1.2
2017-Aug-13 09:37N 39°23' W 074°25'12 2.2
2017-Aug-13 04:26N 39°29' W 074°12'4 8.3
2017-Aug-13 04:00N 39°32' W 074°11'4 8.2
2017-Aug-13 03:30N 39°36' W 074°08'4 8.2
2017-Aug-13 03:00N 39°40' W 074°06'4 8.2
2017-Aug-13 02:29N 39°44' W 074°04'40 8.7
2017-Aug-12 21:54N 40°23' W 073°57'4 9.1
2017-Aug-12 21:26N 40°27' W 073°57'4 8.8
2017-Aug-12 20:58N 40°29' W 074°02'10 6.5
2017-Aug-12 19:24N 40°33' W 074°14'3 8.3
2017-Aug-12 19:00N 40°36' W 074°12'1 2.8
2017-Aug-12 18:30N 40°38' W 074°12'0 0.1
2017-Aug-12 18:00N 40°38' W 074°12'0 0.0
2017-Aug-12 17:30N 40°38' W 074°12'3 6.2
2017-Aug-12 17:00N 40°39' W 074°08'4 7.4
2017-Aug-12 16:31N 40°40' W 074°04'0 0.9
2017-Aug-12 16:00N 40°40' W 074°04'0 0.1
2017-Aug-12 15:30N 40°40' W 074°04'0 0.3
2017-Aug-12 15:00N 40°40' W 074°05'0 0.2
2017-Aug-12 14:30N 40°40' W 074°04'0 0.1
2017-Aug-12 14:00N 40°40' W 074°04'0 0.4
2017-Aug-12 13:30N 40°41' W 074°05'0 0.7
2017-Aug-12 13:00N 40°40' W 074°04'0 0.1
2017-Aug-12 12:30N 40°40' W 074°04'0 0.0
2017-Aug-12 12:01N 40°40' W 074°04'0 0.3
2017-Aug-12 11:30N 40°40' W 074°04'0 0.0
2017-Aug-12 11:00N 40°40' W 074°04'0 0.1
2017-Aug-12 10:30N 40°40' W 074°04'0 0.4
2017-Aug-12 10:01N 40°41' W 074°05'0 0.1
2017-Aug-12 09:30N 40°41' W 074°05'0 0.0
2017-Aug-12 09:00N 40°41' W 074°05'0 0.0
2017-Aug-12 08:30N 40°41' W 074°05'0 0.0
2017-Aug-12 08:00N 40°41' W 074°05'0 0.0
2017-Aug-12 07:30N 40°41' W 074°05'0 0.0
2017-Aug-12 07:00N 40°41' W 074°05'0 0.0
2017-Aug-12 06:30N 40°41' W 074°05'0 0.0
2017-Aug-12 06:00N 40°41' W 074°05'0 0.0
2017-Aug-12 05:30N 40°41' W 074°05'0 0.0
2017-Aug-12 05:00N 40°41' W 074°05'0 0.0
2017-Aug-12 04:30N 40°41' W 074°05'0 0.0
2017-Aug-12 04:00N 40°41' W 074°05'0 0.0
2017-Aug-12 03:30N 40°41' W 074°05'0 0.0
2017-Aug-12 03:00N 40°41' W 074°05'0 0.0
2017-Aug-12 02:30N 40°41' W 074°05'0 0.0
2017-Aug-12 02:00N 40°41' W 074°05'0 0.0
2017-Aug-12 01:30N 40°41' W 074°05'0 0.0
2017-Aug-12 01:00N 40°41' W 074°05'0 0.3
2017-Aug-12 00:30N 40°40' W 074°04'0 0.1
2017-Aug-12 00:01N 40°40' W 074°04'0 0.1
2017-Aug-11 23:30N 40°41' W 074°04'0 0.3
2017-Aug-11 23:00N 40°40' W 074°04'0 0.3
2017-Aug-11 22:30N 40°41' W 074°04'0 0.1
2017-Aug-11 22:01N 40°40' W 074°04'0 0.2
2017-Aug-11 21:30N 40°41' W 074°04'0 0.2
2017-Aug-11 21:00N 40°40' W 074°04'0 0.2
2017-Aug-11 20:30N 40°40' W 074°04'0 0.5
2017-Aug-11 20:00N 40°41' W 074°05'0 0.0
2017-Aug-11 19:30N 40°41' W 074°05'0 0.0
2017-Aug-11 19:00N 40°41' W 074°05'0 0.0
2017-Aug-11 18:30N 40°41' W 074°05'0 0.3
2017-Aug-11 18:01N 40°40' W 074°05'0 0.2
2017-Aug-11 17:31N 40°41' W 074°05'0 0.0
2017-Aug-11 17:00N 40°41' W 074°05'0 0.0
2017-Aug-11 16:30N 40°41' W 074°05'0 0.4
2017-Aug-11 16:00N 40°40' W 074°05'0 0.2
2017-Aug-11 15:31N 40°41' W 074°05'0 0.0
2017-Aug-11 15:00N 40°41' W 074°05'0 0.0
2017-Aug-11 14:00N 40°41' W 074°05'0 0.0
2017-Aug-11 13:30N 40°41' W 074°05'0 0.0
2017-Aug-11 13:00N 40°41' W 074°05'0 0.0
2017-Aug-11 12:30N 40°41' W 074°05'0 0.0
2017-Aug-11 12:00N 40°41' W 074°05'0 0.0
2017-Aug-11 11:30N 40°41' W 074°05'0 0.0
2017-Aug-11 11:00N 40°41' W 074°05'0 0.0
2017-Aug-11 10:30N 40°41' W 074°05'0 0.0
2017-Aug-11 10:00N 40°41' W 074°05'0 0.0
2017-Aug-11 09:30N 40°41' W 074°05'0 0.0
2017-Aug-11 09:00N 40°41' W 074°05'0 0.0
2017-Aug-11 08:30N 40°41' W 074°05'0 0.0
2017-Aug-11 08:00N 40°41' W 074°05'0 0.0
2017-Aug-11 07:30N 40°41' W 074°05'0 0.0
2017-Aug-11 07:00N 40°41' W 074°05'0 0.0
2017-Aug-11 06:30N 40°41' W 074°05'0 0.0
2017-Aug-11 06:00N 40°41' W 074°05'0 0.0
2017-Aug-11 05:30N 40°41' W 074°05'0 0.0
2017-Aug-11 05:00N 40°41' W 074°05'0 0.0
2017-Aug-11 04:30N 40°41' W 074°05'0 0.0
2017-Aug-11 04:00N 40°41' W 074°05'0 0.0
2017-Aug-11 03:30N 40°41' W 074°05'0 0.0
2017-Aug-11 03:00N 40°41' W 074°05'0 0.0
2017-Aug-11 02:30N 40°41' W 074°05'0 0.0
2017-Aug-11 02:00N 40°41' W 074°05'0 0.0
2017-Aug-11 01:30N 40°41' W 074°05'0 0.0
2017-Aug-11 01:00N 40°41' W 074°05'0 0.0
2017-Aug-11 00:30N 40°41' W 074°05'0 0.0
2017-Aug-11 00:00N 40°41' W 074°05'0 0.0
2017-Aug-10 23:30N 40°41' W 074°05'0 0.5
2017-Aug-10 23:00N 40°40' W 074°04'0 0.5
2017-Aug-10 22:30N 40°41' W 074°05'0 0.1
2017-Aug-10 22:01N 40°40' W 074°05'0 0.1
2017-Aug-10 21:30N 40°40' W 074°05'0 0.2
2017-Aug-10 21:00N 40°41' W 074°05'0 0.1
2017-Aug-10 20:30N 40°41' W 074°05'0 0.0
2017-Aug-10 20:00N 40°41' W 074°05'0 0.0
2017-Aug-10 19:30N 40°41' W 074°05'0 0.0
2017-Aug-10 19:00N 40°41' W 074°05'0 0.0
2017-Aug-10 18:30N 40°41' W 074°05'1 2.9
2017-Aug-10 18:00N 40°39' W 074°05'4 8.9
2017-Aug-10 17:30N 40°39' W 074°11'1 2.6
2017-Aug-10 16:59N 40°38' W 074°12'0 0.0
2017-Aug-10 16:30N 40°38' W 074°12'0 0.0
2017-Aug-10 16:00N 40°38' W 074°12'0 0.0
2017-Aug-10 15:30N 40°38' W 074°12'0 0.0
2017-Aug-10 15:00N 40°38' W 074°12'0 0.0
2017-Aug-10 14:30N 40°38' W 074°12'0 0.0
2017-Aug-10 14:00N 40°38' W 074°12'0 0.0
2017-Aug-10 13:30N 40°38' W 074°12'0 0.0
2017-Aug-10 13:00N 40°38' W 074°12'0 0.0
2017-Aug-10 12:30N 40°38' W 074°12'0 0.3
2017-Aug-10 12:00N 40°38' W 074°12'0 0.5
2017-Aug-10 11:30N 40°38' W 074°12'0 0.7
2017-Aug-10 11:00N 40°38' W 074°12'0 0.6
2017-Aug-10 10:31N 40°38' W 074°12'4 8.1
2017-Aug-10 10:00N 40°39' W 074°07'2 4.6
2017-Aug-10 09:30N 40°41' W 074°05'0 0.0
2017-Aug-10 09:00N 40°41' W 074°05'0 0.0
2017-Aug-10 08:30N 40°41' W 074°05'0 0.0
2017-Aug-10 08:00N 40°41' W 074°05'0 0.0
2017-Aug-10 07:30N 40°41' W 074°05'0 0.0
2017-Aug-10 07:00N 40°41' W 074°05'0 0.0
2017-Aug-10 06:30N 40°41' W 074°05'0 0.0
2017-Aug-10 06:00N 40°41' W 074°05'0 0.0
2017-Aug-10 05:30N 40°41' W 074°05'0 0.0
2017-Aug-10 05:00N 40°41' W 074°05'0 0.0
2017-Aug-10 04:30N 40°41' W 074°05'0 0.0
2017-Aug-10 04:00N 40°41' W 074°05'0 0.0
2017-Aug-10 03:30N 40°41' W 074°05'0 0.0
2017-Aug-10 03:00N 40°41' W 074°05'0 0.0
2017-Aug-10 02:30N 40°41' W 074°05'0 0.0
2017-Aug-10 02:00N 40°41' W 074°05'0 0.0
2017-Aug-10 01:30N 40°41' W 074°05'0 0.0
2017-Aug-10 01:00N 40°41' W 074°05'0 0.0
2017-Aug-10 00:30N 40°41' W 074°05'0 0.0
2017-Aug-10 00:00N 40°41' W 074°05'0 0.0
2017-Aug-09 23:30N 40°41' W 074°05'0 0.0
2017-Aug-09 23:00N 40°41' W 074°05'0 0.0
2017-Aug-09 22:30N 40°41' W 074°05'0 0.0
2017-Aug-09 22:00N 40°41' W 074°05'0 0.0
2017-Aug-09 21:30N 40°41' W 074°05'0 0.0
2017-Aug-09 21:00N 40°41' W 074°05'0 0.0
2017-Aug-09 20:30N 40°41' W 074°05'0 0.0
2017-Aug-09 20:00N 40°41' W 074°05'0 0.5
2017-Aug-09 19:31N 40°40' W 074°04'1 1.8
2017-Aug-09 19:00N 40°40' W 074°03'2 4.6
2017-Aug-09 18:30N 40°42' W 074°02'3 6.0
2017-Aug-09 18:00N 40°45' W 074°01'3 5.5
2017-Aug-09 17:30N 40°47' W 073°60'2 3.8
2017-Aug-09 17:00N 40°49' W 073°58'0 0.1
2017-Aug-09 16:30N 40°49' W 073°58'5 9.2
2017-Aug-09 16:00N 40°45' W 074°01'5 9.2
2017-Aug-09 15:30N 40°41' W 074°03'1 2.7
2017-Aug-09 15:00N 40°41' W 074°04'0 0.2
2017-Aug-09 14:30N 40°41' W 074°05'0 0.0
2017-Aug-09 14:00N 40°41' W 074°05'0 0.0
2017-Aug-09 13:30N 40°41' W 074°05'0 0.0
2017-Aug-09 13:00N 40°41' W 074°05'0 0.0
2017-Aug-09 12:30N 40°41' W 074°05'0 0.0
2017-Aug-09 12:00N 40°41' W 074°05'0 0.0
2017-Aug-09 11:30N 40°41' W 074°05'0 0.0
2017-Aug-09 11:00N 40°41' W 074°05'0 0.0
2017-Aug-09 10:30N 40°41' W 074°05'0 0.0
2017-Aug-09 10:00N 40°41' W 074°05'0 0.0
2017-Aug-09 09:30N 40°41' W 074°05'0 0.0
2017-Aug-09 09:00N 40°41' W 074°05'0 0.0
2017-Aug-09 08:30N 40°41' W 074°05'0 0.0
2017-Aug-09 08:00N 40°41' W 074°05'0 0.0
2017-Aug-09 07:30N 40°41' W 074°05'0 0.0
2017-Aug-09 07:00N 40°41' W 074°05'0 0.0
2017-Aug-09 06:30N 40°41' W 074°05'0 0.0
2017-Aug-09 06:00N 40°41' W 074°05'0 0.0
2017-Aug-09 05:30N 40°41' W 074°05'0 0.0
2017-Aug-09 05:00N 40°41' W 074°05'0 0.0
2017-Aug-09 04:30N 40°41' W 074°05'0 0.0
2017-Aug-09 04:00N 40°41' W 074°05'0 0.0
2017-Aug-09 03:30N 40°41' W 074°05'0 0.0
2017-Aug-09 03:00N 40°41' W 074°05'0 0.0
2017-Aug-09 02:30N 40°41' W 074°05'0 0.0
2017-Aug-09 02:00N 40°41' W 074°05'0 0.0
2017-Aug-09 01:30N 40°41' W 074°05'0 0.0
2017-Aug-09 01:00N 40°41' W 074°05'0 0.0
2017-Aug-09 00:30N 40°41' W 074°05'0 0.0
2017-Aug-09 00:00N 40°41' W 074°05'0 0.0
2017-Aug-08 23:30N 40°41' W 074°05'0 0.0
2017-Aug-08 23:01N 40°41' W 074°05'0 0.0
2017-Aug-08 22:30N 40°41' W 074°05'0 0.0
2017-Aug-08 22:00N 40°41' W 074°05'0 0.4
2017-Aug-08 21:30N 40°41' W 074°04'0 0.2
2017-Aug-08 21:00N 40°41' W 074°04'0 0.3
2017-Aug-08 20:30N 40°41' W 074°05'0 0.0
2017-Aug-08 20:00N 40°41' W 074°05'0 0.0
2017-Aug-08 19:30N 40°41' W 074°05'0 0.0
2017-Aug-08 19:00N 40°41' W 074°05'0 0.0
2017-Aug-08 18:30N 40°41' W 074°05'0 0.0
2017-Aug-08 18:00N 40°41' W 074°05'0 0.0
2017-Aug-08 17:30N 40°41' W 074°05'0 0.0
2017-Aug-08 17:00N 40°41' W 074°05'0 0.0
2017-Aug-08 16:30N 40°41' W 074°05'0 0.0
2017-Aug-08 16:00N 40°41' W 074°05'0 0.0
2017-Aug-08 15:30N 40°41' W 074°05'0 0.0
2017-Aug-08 15:00N 40°41' W 074°05'0 0.1
2017-Aug-08 14:30N 40°41' W 074°05'0 0.0
2017-Aug-08 14:00N 40°41' W 074°05'0 0.2
2017-Aug-08 13:30N 40°40' W 074°04'2 3.6
2017-Aug-08 13:00N 40°39' W 074°06'3 5.2
2017-Aug-08 12:30N 40°39' W 074°09'2 3.7
2017-Aug-08 12:00N 40°41' W 074°08'0 0.0
2017-Aug-08 11:30N 40°41' W 074°08'0 0.2
2017-Aug-08 11:00N 40°41' W 074°08'2 4.7
2017-Aug-08 10:30N 40°39' W 074°08'3 6.6
2017-Aug-08 10:00N 40°40' W 074°04'  

Dump ship's entire track history